sensor_id;sensor_type;location;lat;lon;timestamp;P1;durP1;ratioP1;P2;durP2;ratioP2
15669;SDS011;18524;45.190;5.732;2023-03-13T00:01:54;6.80;;;3.93;;
15669;SDS011;18524;45.190;5.732;2023-03-13T00:06:45;5.00;;;3.87;;
15669;SDS011;18524;45.190;5.732;2023-03-13T00:11:35;4.13;;;3.57;;
15669;SDS011;18524;45.190;5.732;2023-03-13T00:16:26;5.47;;;4.00;;
15669;SDS011;18524;45.190;5.732;2023-03-13T00:21:17;4.70;;;4.03;;
15669;SDS011;18524;45.190;5.732;2023-03-13T00:26:10;3.77;;;3.47;;
15669;SDS011;18524;45.190;5.732;2023-03-13T00:31:07;4.57;;;3.60;;
15669;SDS011;18524;45.190;5.732;2023-03-13T00:36:01;4.73;;;4.10;;
15669;SDS011;18524;45.190;5.732;2023-03-13T00:40:58;7.00;;;3.80;;
15669;SDS011;18524;45.190;5.732;2023-03-13T00:45:52;7.00;;;3.80;;
15669;SDS011;18524;45.190;5.732;2023-03-13T00:50:43;4.03;;;3.63;;
15669;SDS011;18524;45.190;5.732;2023-03-13T00:55:33;6.70;;;4.43;;
15669;SDS011;18524;45.190;5.732;2023-03-13T01:00:24;5.97;;;4.50;;
15669;SDS011;18524;45.190;5.732;2023-03-13T01:05:14;6.70;;;4.17;;
15669;SDS011;18524;45.190;5.732;2023-03-13T01:10:05;4.43;;;3.93;;
15669;SDS011;18524;45.190;5.732;2023-03-13T01:14:56;7.50;;;4.07;;
15669;SDS011;18524;45.190;5.732;2023-03-13T01:19:46;4.63;;;3.97;;
15669;SDS011;18524;45.190;5.732;2023-03-13T01:24:36;7.73;;;4.23;;
15669;SDS011;18524;45.190;5.732;2023-03-13T01:29:27;5.47;;;4.40;;
15669;SDS011;18524;45.190;5.732;2023-03-13T01:34:17;5.27;;;4.57;;
15669;SDS011;18524;45.190;5.732;2023-03-13T01:39:08;5.30;;;4.77;;
15669;SDS011;18524;45.190;5.732;2023-03-13T01:43:58;5.30;;;4.60;;
15669;SDS011;18524;45.190;5.732;2023-03-13T01:53:47;6.83;;;5.20;;
15669;SDS011;18524;45.190;5.732;2023-03-13T01:58:41;6.80;;;4.80;;
15669;SDS011;18524;45.190;5.732;2023-03-13T02:03:32;5.23;;;3.97;;
15669;SDS011;18524;45.190;5.732;2023-03-13T02:08:25;5.17;;;4.20;;
15669;SDS011;18524;45.190;5.732;2023-03-13T02:13:21;5.17;;;4.50;;
15669;SDS011;18524;45.190;5.732;2023-03-13T02:18:12;5.03;;;4.07;;
15669;SDS011;18524;45.190;5.732;2023-03-13T02:28:30;6.23;;;4.50;;
15669;SDS011;18524;45.190;5.732;2023-03-13T02:33:25;5.67;;;5.07;;
15669;SDS011;18524;45.190;5.732;2023-03-13T02:38:20;6.70;;;4.87;;
15669;SDS011;18524;45.190;5.732;2023-03-13T02:43:15;5.77;;;4.87;;
15669;SDS011;18524;45.190;5.732;2023-03-13T02:48:09;8.57;;;5.40;;
15669;SDS011;18524;45.190;5.732;2023-03-13T02:53:00;5.27;;;4.73;;
15669;SDS011;18524;45.190;5.732;2023-03-13T02:57:54;5.67;;;4.90;;
15669;SDS011;18524;45.190;5.732;2023-03-13T03:02:44;6.87;;;5.33;;
15669;SDS011;18524;45.190;5.732;2023-03-13T03:07:35;5.63;;;5.10;;
15669;SDS011;18524;45.190;5.732;2023-03-13T03:12:25;6.60;;;5.27;;
15669;SDS011;18524;45.190;5.732;2023-03-13T03:17:16;6.50;;;5.20;;
15669;SDS011;18524;45.190;5.732;2023-03-13T03:22:06;6.20;;;5.40;;
15669;SDS011;18524;45.190;5.732;2023-03-13T03:26:57;6.17;;;5.10;;
15669;SDS011;18524;45.190;5.732;2023-03-13T03:31:47;6.67;;;5.07;;
15669;SDS011;18524;45.190;5.732;2023-03-13T03:36:37;7.03;;;5.40;;
15669;SDS011;18524;45.190;5.732;2023-03-13T03:41:28;6.30;;;5.70;;
15669;SDS011;18524;45.190;5.732;2023-03-13T03:46:18;5.33;;;4.83;;
15669;SDS011;18524;45.190;5.732;2023-03-13T03:51:09;6.37;;;4.67;;
15669;SDS011;18524;45.190;5.732;2023-03-13T03:56:00;5.93;;;4.27;;
15669;SDS011;18524;45.190;5.732;2023-03-13T04:00:51;5.70;;;4.63;;
15669;SDS011;18524;45.190;5.732;2023-03-13T04:05:42;5.97;;;4.67;;
15669;SDS011;18524;45.190;5.732;2023-03-13T04:10:32;6.87;;;5.40;;
15669;SDS011;18524;45.190;5.732;2023-03-13T04:15:23;6.80;;;5.80;;
15669;SDS011;18524;45.190;5.732;2023-03-13T04:20:13;6.60;;;5.37;;
15669;SDS011;18524;45.190;5.732;2023-03-13T04:25:04;6.27;;;5.47;;
15669;SDS011;18524;45.190;5.732;2023-03-13T04:29:54;6.47;;;5.83;;
15669;SDS011;18524;45.190;5.732;2023-03-13T04:34:45;7.83;;;5.33;;
15669;SDS011;18524;45.190;5.732;2023-03-13T04:39:35;6.73;;;5.53;;
15669;SDS011;18524;45.190;5.732;2023-03-13T04:44:26;6.83;;;5.50;;
15669;SDS011;18524;45.190;5.732;2023-03-13T04:49:16;5.67;;;5.07;;
15669;SDS011;18524;45.190;5.732;2023-03-13T04:54:06;7.80;;;5.27;;
15669;SDS011;18524;45.190;5.732;2023-03-13T04:58:57;6.93;;;5.10;;
15669;SDS011;18524;45.190;5.732;2023-03-13T05:03:47;6.30;;;4.90;;
15669;SDS011;18524;45.190;5.732;2023-03-13T05:08:38;6.83;;;4.67;;
15669;SDS011;18524;45.190;5.732;2023-03-13T05:13:29;8.00;;;4.50;;
15669;SDS011;18524;45.190;5.732;2023-03-13T05:18:19;5.10;;;4.40;;
15669;SDS011;18524;45.190;5.732;2023-03-13T05:23:09;5.03;;;3.83;;
15669;SDS011;18524;45.190;5.732;2023-03-13T05:28:00;5.13;;;3.13;;
15669;SDS011;18524;45.190;5.732;2023-03-13T05:32:50;4.77;;;3.60;;
15669;SDS011;18524;45.190;5.732;2023-03-13T05:37:41;4.63;;;3.20;;
15669;SDS011;18524;45.190;5.732;2023-03-13T05:42:32;5.10;;;3.60;;
15669;SDS011;18524;45.190;5.732;2023-03-13T05:47:22;6.53;;;3.70;;
15669;SDS011;18524;45.190;5.732;2023-03-13T05:52:12;5.70;;;3.90;;
15669;SDS011;18524;45.190;5.732;2023-03-13T05:57:03;5.17;;;3.50;;
15669;SDS011;18524;45.190;5.732;2023-03-13T06:01:53;6.03;;;4.13;;
15669;SDS011;18524;45.190;5.732;2023-03-13T06:06:44;6.60;;;4.20;;
15669;SDS011;18524;45.190;5.732;2023-03-13T06:11:35;5.87;;;3.90;;
15669;SDS011;18524;45.190;5.732;2023-03-13T06:16:25;5.47;;;4.17;;
15669;SDS011;18524;45.190;5.732;2023-03-13T06:21:16;4.73;;;3.63;;
15669;SDS011;18524;45.190;5.732;2023-03-13T06:26:06;4.53;;;3.63;;
15669;SDS011;18524;45.190;5.732;2023-03-13T06:31:00;5.70;;;3.80;;
15669;SDS011;18524;45.190;5.732;2023-03-13T06:35:52;4.47;;;3.70;;
15669;SDS011;18524;45.190;5.732;2023-03-13T06:40:42;6.03;;;4.00;;
15669;SDS011;18524;45.190;5.732;2023-03-13T06:45:33;5.70;;;4.13;;
15669;SDS011;18524;45.190;5.732;2023-03-13T06:50:25;7.07;;;4.80;;
15669;SDS011;18524;45.190;5.732;2023-03-13T06:55:15;6.27;;;4.50;;
15669;SDS011;18524;45.190;5.732;2023-03-13T07:00:06;5.03;;;4.53;;
15669;SDS011;18524;45.190;5.732;2023-03-13T07:04:57;6.53;;;4.27;;
15669;SDS011;18524;45.190;5.732;2023-03-13T07:09:48;4.77;;;3.90;;
15669;SDS011;18524;45.190;5.732;2023-03-13T07:14:38;4.47;;;3.70;;
15669;SDS011;18524;45.190;5.732;2023-03-13T07:19:28;4.67;;;2.97;;
15669;SDS011;18524;45.190;5.732;2023-03-13T07:24:19;5.23;;;3.60;;
15669;SDS011;18524;45.190;5.732;2023-03-13T07:29:10;4.97;;;3.20;;
15669;SDS011;18524;45.190;5.732;2023-03-13T07:34:00;4.90;;;3.33;;
15669;SDS011;18524;45.190;5.732;2023-03-13T07:38:51;5.63;;;3.67;;
15669;SDS011;18524;45.190;5.732;2023-03-13T07:43:42;4.40;;;3.50;;
15669;SDS011;18524;45.190;5.732;2023-03-13T07:48:33;4.57;;;3.50;;
15669;SDS011;18524;45.190;5.732;2023-03-13T07:53:25;4.27;;;2.80;;
15669;SDS011;18524;45.190;5.732;2023-03-13T07:58:16;3.97;;;3.03;;
15669;SDS011;18524;45.190;5.732;2023-03-13T08:03:07;5.77;;;3.53;;
15669;SDS011;18524;45.190;5.732;2023-03-13T08:07:58;4.40;;;3.43;;
15669;SDS011;18524;45.190;5.732;2023-03-13T08:12:49;5.20;;;3.07;;
15669;SDS011;18524;45.190;5.732;2023-03-13T08:17:39;3.47;;;2.90;;
15669;SDS011;18524;45.190;5.732;2023-03-13T08:22:29;5.43;;;2.90;;
15669;SDS011;18524;45.190;5.732;2023-03-13T08:27:20;5.33;;;2.80;;
15669;SDS011;18524;45.190;5.732;2023-03-13T08:32:10;3.00;;;2.50;;
15669;SDS011;18524;45.190;5.732;2023-03-13T08:37:00;3.83;;;2.30;;
15669;SDS011;18524;45.190;5.732;2023-03-13T08:41:51;6.97;;;2.67;;
15669;SDS011;18524;45.190;5.732;2023-03-13T08:46:41;6.37;;;2.20;;
15669;SDS011;18524;45.190;5.732;2023-03-13T08:51:33;3.90;;;2.37;;
15669;SDS011;18524;45.190;5.732;2023-03-13T08:56:25;3.77;;;2.87;;
15669;SDS011;18524;45.190;5.732;2023-03-13T09:01:19;5.17;;;2.67;;
15669;SDS011;18524;45.190;5.732;2023-03-13T09:06:11;4.73;;;2.93;;
15669;SDS011;18524;45.190;5.732;2023-03-13T09:11:05;4.37;;;2.73;;
15669;SDS011;18524;45.190;5.732;2023-03-13T09:15:58;3.50;;;3.00;;
15669;SDS011;18524;45.190;5.732;2023-03-13T09:20:51;4.20;;;2.90;;
15669;SDS011;18524;45.190;5.732;2023-03-13T09:25:41;4.77;;;2.60;;
15669;SDS011;18524;45.190;5.732;2023-03-13T09:30:31;3.40;;;2.83;;
15669;SDS011;18524;45.190;5.732;2023-03-13T09:35:22;4.23;;;2.40;;
15669;SDS011;18524;45.190;5.732;2023-03-13T09:40:19;3.07;;;2.77;;
15669;SDS011;18524;45.190;5.732;2023-03-13T09:45:15;3.47;;;2.73;;
15669;SDS011;18524;45.190;5.732;2023-03-13T10:05:14;4.40;;;2.20;;
15669;SDS011;18524;45.190;5.732;2023-03-13T10:10:20;4.30;;;2.17;;
15669;SDS011;18524;45.190;5.732;2023-03-13T10:20:34;2.77;;;1.47;;
15669;SDS011;18524;45.190;5.732;2023-03-13T10:25:32;3.10;;;1.10;;
15669;SDS011;18524;45.190;5.732;2023-03-13T10:30:26;3.40;;;1.40;;
15669;SDS011;18524;45.190;5.732;2023-03-13T10:35:20;3.07;;;1.20;;
15669;SDS011;18524;45.190;5.732;2023-03-13T10:40:21;3.17;;;1.30;;
15669;SDS011;18524;45.190;5.732;2023-03-13T10:45:17;3.63;;;1.47;;
15669;SDS011;18524;45.190;5.732;2023-03-13T10:50:17;4.63;;;1.30;;
15669;SDS011;18524;45.190;5.732;2023-03-13T10:55:20;3.97;;;1.53;;
15669;SDS011;18524;45.190;5.732;2023-03-13T11:00:28;1.43;;;1.20;;
15669;SDS011;18524;45.190;5.732;2023-03-13T11:10:20;3.03;;;1.20;;
15669;SDS011;18524;45.190;5.732;2023-03-13T11:15:14;3.57;;;1.10;;
15669;SDS011;18524;45.190;5.732;2023-03-13T11:20:20;2.10;;;0.97;;
15669;SDS011;18524;45.190;5.732;2023-03-13T11:35:00;2.43;;;1.10;;
15669;SDS011;18524;45.190;5.732;2023-03-13T11:40:08;2.90;;;1.40;;
15669;SDS011;18524;45.190;5.732;2023-03-13T11:50:39;4.40;;;1.20;;
15669;SDS011;18524;45.190;5.732;2023-03-13T12:01:02;2.03;;;1.17;;
15669;SDS011;18524;45.190;5.732;2023-03-13T12:06:00;3.53;;;1.57;;
15669;SDS011;18524;45.190;5.732;2023-03-13T12:16:11;3.13;;;1.50;;
15669;SDS011;18524;45.190;5.732;2023-03-13T12:26:12;2.97;;;1.00;;
15669;SDS011;18524;45.190;5.732;2023-03-13T12:36:18;2.57;;;1.00;;
15669;SDS011;18524;45.190;5.732;2023-03-13T12:41:17;4.53;;;1.30;;
15669;SDS011;18524;45.190;5.732;2023-03-13T12:51:29;0.40;;;0.40;;
15669;SDS011;18524;45.190;5.732;2023-03-13T13:06:20;0.80;;;0.40;;
15669;SDS011;18524;45.190;5.732;2023-03-13T13:16:24;0.87;;;0.30;;
15669;SDS011;18524;45.190;5.732;2023-03-13T13:36:45;1.40;;;0.37;;
15669;SDS011;18524;45.190;5.732;2023-03-13T13:41:36;1.53;;;0.17;;
15669;SDS011;18524;45.190;5.732;2023-03-13T13:46:30;0.70;;;0.30;;
15669;SDS011;18524;45.190;5.732;2023-03-13T13:51:22;1.53;;;0.30;;
15669;SDS011;18524;45.190;5.732;2023-03-13T13:56:27;1.50;;;0.30;;
15669;SDS011;18524;45.190;5.732;2023-03-13T14:01:48;0.83;;;0.47;;
15669;SDS011;18524;45.190;5.732;2023-03-13T14:06:58;1.53;;;0.50;;
15669;SDS011;18524;45.190;5.732;2023-03-13T14:11:51;1.60;;;0.50;;
15669;SDS011;18524;45.190;5.732;2023-03-13T14:16:43;2.23;;;0.50;;
15669;SDS011;18524;45.190;5.732;2023-03-13T14:21:35;0.47;;;0.30;;
15669;SDS011;18524;45.190;5.732;2023-03-13T14:26:27;1.37;;;0.40;;
15669;SDS011;18524;45.190;5.732;2023-03-13T14:36:21;2.87;;;0.40;;
15669;SDS011;18524;45.190;5.732;2023-03-13T14:41:22;1.50;;;0.40;;
15669;SDS011;18524;45.190;5.732;2023-03-13T14:51:25;2.33;;;0.57;;
15669;SDS011;18524;45.190;5.732;2023-03-13T14:56:17;1.07;;;0.50;;
15669;SDS011;18524;45.190;5.732;2023-03-13T15:01:11;1.13;;;0.50;;
15669;SDS011;18524;45.190;5.732;2023-03-13T15:06:16;0.60;;;0.40;;
15669;SDS011;18524;45.190;5.732;2023-03-13T15:11:42;0.73;;;0.50;;
15669;SDS011;18524;45.190;5.732;2023-03-13T15:16:30;1.03;;;0.60;;
15669;SDS011;18524;45.190;5.732;2023-03-13T15:21:21;0.87;;;0.30;;
15669;SDS011;18524;45.190;5.732;2023-03-13T15:26:19;2.13;;;0.50;;
15669;SDS011;18524;45.190;5.732;2023-03-13T15:31:10;0.50;;;0.50;;
15669;SDS011;18524;45.190;5.732;2023-03-13T15:36:02;1.47;;;0.50;;
15669;SDS011;18524;45.190;5.732;2023-03-13T15:40:53;1.13;;;0.50;;
15669;SDS011;18524;45.190;5.732;2023-03-13T15:45:45;1.07;;;0.50;;
15669;SDS011;18524;45.190;5.732;2023-03-13T15:50:47;1.20;;;0.50;;
15669;SDS011;18524;45.190;5.732;2023-03-13T15:55:39;0.60;;;0.50;;
15669;SDS011;18524;45.190;5.732;2023-03-13T16:00:30;0.80;;;0.60;;
15669;SDS011;18524;45.190;5.732;2023-03-13T16:05:21;0.53;;;0.53;;
15669;SDS011;18524;45.190;5.732;2023-03-13T16:10:16;1.00;;;0.53;;
15669;SDS011;18524;45.190;5.732;2023-03-13T16:15:09;1.87;;;0.60;;
15669;SDS011;18524;45.190;5.732;2023-03-13T16:20:00;0.60;;;0.60;;
15669;SDS011;18524;45.190;5.732;2023-03-13T16:24:50;2.30;;;0.60;;
15669;SDS011;18524;45.190;5.732;2023-03-13T16:29:41;1.13;;;0.70;;
15669;SDS011;18524;45.190;5.732;2023-03-13T16:34:32;1.03;;;0.50;;
15669;SDS011;18524;45.190;5.732;2023-03-13T16:39:22;1.10;;;0.60;;
15669;SDS011;18524;45.190;5.732;2023-03-13T16:44:13;1.43;;;0.70;;
15669;SDS011;18524;45.190;5.732;2023-03-13T16:49:04;0.63;;;0.60;;
15669;SDS011;18524;45.190;5.732;2023-03-13T16:53:55;1.10;;;0.70;;
15669;SDS011;18524;45.190;5.732;2023-03-13T16:58:51;0.90;;;0.80;;
15669;SDS011;18524;45.190;5.732;2023-03-13T17:03:42;1.33;;;0.80;;
15669;SDS011;18524;45.190;5.732;2023-03-13T17:08:33;1.17;;;0.73;;
15669;SDS011;18524;45.190;5.732;2023-03-13T17:13:24;0.70;;;0.70;;
15669;SDS011;18524;45.190;5.732;2023-03-13T17:18:14;1.30;;;0.93;;
15669;SDS011;18524;45.190;5.732;2023-03-13T17:23:05;1.13;;;1.00;;
15669;SDS011;18524;45.190;5.732;2023-03-13T17:27:55;1.27;;;0.80;;
15669;SDS011;18524;45.190;5.732;2023-03-13T17:32:46;1.00;;;0.87;;
15669;SDS011;18524;45.190;5.732;2023-03-13T17:37:37;2.03;;;0.97;;
15669;SDS011;18524;45.190;5.732;2023-03-13T17:42:27;1.07;;;0.80;;
15669;SDS011;18524;45.190;5.732;2023-03-13T17:47:19;1.40;;;0.90;;
15669;SDS011;18524;45.190;5.732;2023-03-13T17:52:13;1.63;;;1.10;;
15669;SDS011;18524;45.190;5.732;2023-03-13T17:57:13;0.90;;;0.90;;
15669;SDS011;18524;45.190;5.732;2023-03-13T18:02:10;1.60;;;1.00;;
15669;SDS011;18524;45.190;5.732;2023-03-13T18:07:01;1.47;;;0.80;;
15669;SDS011;18524;45.190;5.732;2023-03-13T18:11:52;1.07;;;0.80;;
15669;SDS011;18524;45.190;5.732;2023-03-13T18:16:44;1.37;;;0.90;;
15669;SDS011;18524;45.190;5.732;2023-03-13T18:21:40;1.33;;;0.90;;
15669;SDS011;18524;45.190;5.732;2023-03-13T18:26:33;0.97;;;0.83;;
15669;SDS011;18524;45.190;5.732;2023-03-13T18:31:26;2.10;;;1.10;;
15669;SDS011;18524;45.190;5.732;2023-03-13T18:36:18;1.03;;;0.93;;
15669;SDS011;18524;45.190;5.732;2023-03-13T18:41:09;2.80;;;1.00;;
15669;SDS011;18524;45.190;5.732;2023-03-13T18:45:59;1.63;;;1.00;;
15669;SDS011;18524;45.190;5.732;2023-03-13T18:50:50;1.50;;;0.93;;
15669;SDS011;18524;45.190;5.732;2023-03-13T18:55:40;1.70;;;0.90;;
15669;SDS011;18524;45.190;5.732;2023-03-13T19:00:32;1.10;;;1.00;;
15669;SDS011;18524;45.190;5.732;2023-03-13T19:05:23;1.50;;;1.30;;
15669;SDS011;18524;45.190;5.732;2023-03-13T19:10:26;2.07;;;1.50;;
15669;SDS011;18524;45.190;5.732;2023-03-13T19:15:18;2.00;;;1.80;;
15669;SDS011;18524;45.190;5.732;2023-03-13T19:20:14;1.53;;;1.20;;
15669;SDS011;18524;45.190;5.732;2023-03-13T19:25:07;1.97;;;1.20;;
15669;SDS011;18524;45.190;5.732;2023-03-13T19:29:58;2.10;;;1.00;;
15669;SDS011;18524;45.190;5.732;2023-03-13T19:34:48;2.30;;;1.60;;
15669;SDS011;18524;45.190;5.732;2023-03-13T19:39:39;1.67;;;1.50;;
15669;SDS011;18524;45.190;5.732;2023-03-13T19:44:30;2.83;;;1.63;;
15669;SDS011;18524;45.190;5.732;2023-03-13T19:49:21;2.30;;;1.70;;
15669;SDS011;18524;45.190;5.732;2023-03-13T19:54:11;3.40;;;2.90;;
15669;SDS011;18524;45.190;5.732;2023-03-13T19:59:03;2.87;;;1.73;;
15669;SDS011;18524;45.190;5.732;2023-03-13T20:03:57;4.30;;;2.30;;
15669;SDS011;18524;45.190;5.732;2023-03-13T20:08:47;6.53;;;2.30;;
15669;SDS011;18524;45.190;5.732;2023-03-13T20:13:42;2.83;;;2.10;;
15669;SDS011;18524;45.190;5.732;2023-03-13T20:18:32;3.50;;;2.27;;
15669;SDS011;18524;45.190;5.732;2023-03-13T20:23:23;2.33;;;1.80;;
15669;SDS011;18524;45.190;5.732;2023-03-13T20:28:13;4.37;;;2.30;;
15669;SDS011;18524;45.190;5.732;2023-03-13T20:33:04;2.77;;;2.10;;
15669;SDS011;18524;45.190;5.732;2023-03-13T20:37:54;2.67;;;1.60;;
15669;SDS011;18524;45.190;5.732;2023-03-13T20:42:46;2.90;;;1.63;;
15669;SDS011;18524;45.190;5.732;2023-03-13T20:47:37;2.63;;;1.63;;
15669;SDS011;18524;45.190;5.732;2023-03-13T20:52:27;4.13;;;2.03;;
15669;SDS011;18524;45.190;5.732;2023-03-13T20:57:18;3.53;;;1.70;;
15669;SDS011;18524;45.190;5.732;2023-03-13T21:02:08;3.17;;;1.60;;
15669;SDS011;18524;45.190;5.732;2023-03-13T21:06:59;2.93;;;1.83;;
15669;SDS011;18524;45.190;5.732;2023-03-13T21:11:53;3.67;;;2.00;;
15669;SDS011;18524;45.190;5.732;2023-03-13T21:16:43;3.60;;;1.90;;
15669;SDS011;18524;45.190;5.732;2023-03-13T21:21:34;3.33;;;1.80;;
15669;SDS011;18524;45.190;5.732;2023-03-13T21:26:24;3.93;;;2.07;;
15669;SDS011;18524;45.190;5.732;2023-03-13T21:31:15;4.63;;;2.33;;
15669;SDS011;18524;45.190;5.732;2023-03-13T21:36:07;5.30;;;2.77;;
15669;SDS011;18524;45.190;5.732;2023-03-13T21:40:59;5.30;;;2.80;;
15669;SDS011;18524;45.190;5.732;2023-03-13T21:45:49;3.63;;;2.70;;
15669;SDS011;18524;45.190;5.732;2023-03-13T21:50:39;4.97;;;2.87;;
15669;SDS011;18524;45.190;5.732;2023-03-13T21:55:30;3.63;;;2.30;;
15669;SDS011;18524;45.190;5.732;2023-03-13T22:00:24;3.57;;;2.00;;
15669;SDS011;18524;45.190;5.732;2023-03-13T22:05:14;2.63;;;1.13;;
15669;SDS011;18524;45.190;5.732;2023-03-13T22:10:05;1.00;;;0.40;;
15669;SDS011;18524;45.190;5.732;2023-03-13T22:14:56;1.40;;;0.40;;
15669;SDS011;18524;45.190;5.732;2023-03-13T22:19:46;0.60;;;0.40;;
15669;SDS011;18524;45.190;5.732;2023-03-13T22:24:38;0.30;;;0.20;;
15669;SDS011;18524;45.190;5.732;2023-03-13T22:29:28;0.30;;;0.20;;
15669;SDS011;18524;45.190;5.732;2023-03-13T22:34:20;0.60;;;0.17;;
15669;SDS011;18524;45.190;5.732;2023-03-13T22:39:11;0.90;;;0.20;;
15669;SDS011;18524;45.190;5.732;2023-03-13T22:44:01;1.30;;;0.70;;
15669;SDS011;18524;45.190;5.732;2023-03-13T22:48:52;1.70;;;0.90;;
15669;SDS011;18524;45.190;5.732;2023-03-13T22:53:42;2.13;;;0.60;;
15669;SDS011;18524;45.190;5.732;2023-03-13T22:58:32;0.50;;;0.30;;
15669;SDS011;18524;45.190;5.732;2023-03-13T23:03:23;1.00;;;0.87;;
15669;SDS011;18524;45.190;5.732;2023-03-13T23:08:14;1.53;;;0.90;;
15669;SDS011;18524;45.190;5.732;2023-03-13T23:13:05;4.03;;;1.37;;
15669;SDS011;18524;45.190;5.732;2023-03-13T23:17:55;4.10;;;1.67;;
15669;SDS011;18524;45.190;5.732;2023-03-13T23:22:45;0.60;;;0.30;;
15669;SDS011;18524;45.190;5.732;2023-03-13T23:27:36;1.17;;;0.50;;
15669;SDS011;18524;45.190;5.732;2023-03-13T23:32:27;0.20;;;0.10;;
15669;SDS011;18524;45.190;5.732;2023-03-13T23:37:17;0.40;;;0.20;;
15669;SDS011;18524;45.190;5.732;2023-03-13T23:42:08;0.50;;;0.10;;
15669;SDS011;18524;45.190;5.732;2023-03-13T23:46:58;1.17;;;0.10;;
15669;SDS011;18524;45.190;5.732;2023-03-13T23:51:48;0.40;;;0.20;;
15669;SDS011;18524;45.190;5.732;2023-03-13T23:56:39;0.70;;;0.20;;
